NOZ773 ENBR-ENTC
Flight info
| Callsign | NOZ773 |
|---|---|
| Flight time | 1h 40m |
| Altitude | 37000 |
| Route | INTUM DCT BARVI |
| Aircraft | B738/M-SDE2E3FGHIRWXY/LB1 |
Departure
| Time | 2026-05-05 19:10 |
|---|---|
| Airport | Bergen Airport, Flesland (ENBR) |
Arrival
| Time | 2026-05-05 20:50 |
|---|---|
| Airport | Tromsø Airport (ENTC) |
| Time | Latitude | Longitude | Altitude | Speed | Heading |
|---|---|---|---|---|---|
| 2026-05-05 18:32 | 60.28700 | 5.22916 | 172 ft | 0 kts | 80° |
| 2026-05-05 19:01 | 60.28700 | 5.22915 | 172 ft | 1 kts | 80° |
| 2026-05-05 19:01 | 60.28696 | 5.22867 | 172 ft | 4 kts | 80° |
| 2026-05-05 19:01 | 60.28692 | 5.22814 | 172 ft | 3 kts | 80° |
| 2026-05-05 19:02 | 60.28691 | 5.22809 | 172 ft | 1 kts | 80° |
| 2026-05-05 19:05 | 60.28692 | 5.22811 | 172 ft | 1 kts | 75° |
| 2026-05-05 19:05 | 60.28699 | 5.22811 | 172 ft | 2 kts | 356° |
| 2026-05-05 19:06 | 60.28718 | 5.22770 | 171 ft | 6 kts | 290° |
| 2026-05-05 19:06 | 60.28720 | 5.22670 | 169 ft | 8 kts | 267° |
| 2026-05-05 19:06 | 60.28709 | 5.22545 | 166 ft | 9 kts | 258° |
| 2026-05-05 19:06 | 60.28684 | 5.22419 | 164 ft | 10 kts | 243° |
| 2026-05-05 19:07 | 60.28623 | 5.22380 | 164 ft | 10 kts | 172° |
| 2026-05-05 19:07 | 60.28555 | 5.22401 | 163 ft | 10 kts | 169° |
| 2026-05-05 19:07 | 60.28485 | 5.22426 | 162 ft | 10 kts | 171° |
| 2026-05-05 19:07 | 60.28417 | 5.22448 | 161 ft | 10 kts | 169° |
| 2026-05-05 19:08 | 60.28342 | 5.22474 | 158 ft | 9 kts | 171° |
| 2026-05-05 19:08 | 60.28288 | 5.22427 | 154 ft | 11 kts | 252° |
| 2026-05-05 19:08 | 60.28279 | 5.22275 | 154 ft | 11 kts | 277° |
| 2026-05-05 19:08 | 60.28283 | 5.22218 | 155 ft | 3 kts | 281° |
| 2026-05-05 19:09 | 60.28295 | 5.22185 | 157 ft | 3 kts | 315° |
| 2026-05-05 19:09 | 60.28312 | 5.22166 | 157 ft | 3 kts | 339° |
| 2026-05-05 19:09 | 60.28330 | 5.22159 | 158 ft | 3 kts | 350° |
| 2026-05-05 19:09 | 60.28472 | 5.22110 | 161 ft | 53 kts | 350° |
| 2026-05-05 19:10 | 60.29066 | 5.21909 | 160 ft | 120 kts | 351° |
| 2026-05-05 19:10 | 60.30058 | 5.21570 | 393 ft | 156 kts | 349° |
| 2026-05-05 19:10 | 60.31149 | 5.21294 | 1207 ft | 157 kts | 350° |
| 2026-05-05 19:10 | 60.32225 | 5.20959 | 2046 ft | 159 kts | 349° |
| 2026-05-05 19:11 | 60.33399 | 5.20570 | 2412 ft | 187 kts | 349° |
| 2026-05-05 19:11 | 60.34758 | 5.20111 | 2668 ft | 210 kts | 349° |
| 2026-05-05 19:11 | 60.36250 | 5.19605 | 3065 ft | 224 kts | 349° |
| 2026-05-05 19:11 | 60.37824 | 5.19067 | 3587 ft | 230 kts | 349° |
| 2026-05-05 19:12 | 60.39414 | 5.18520 | 4230 ft | 232 kts | 349° |
| 2026-05-05 19:12 | 60.41044 | 5.17954 | 4623 ft | 249 kts | 349° |
| 2026-05-05 19:12 | 60.42783 | 5.17348 | 5336 ft | 255 kts | 349° |
| 2026-05-05 19:12 | 60.44556 | 5.16730 | 6077 ft | 258 kts | 348° |
| 2026-05-05 19:13 | 60.46329 | 5.16110 | 6955 ft | 258 kts | 348° |
| 2026-05-05 19:13 | 60.48116 | 5.15524 | 7734 ft | 263 kts | 353° |
| 2026-05-05 19:13 | 60.49908 | 5.16121 | 8458 ft | 273 kts | 21° |
| 2026-05-05 19:13 | 60.51561 | 5.18130 | 9252 ft | 278 kts | 31° |
| 2026-05-05 19:14 | 60.53163 | 5.20425 | 9991 ft | 283 kts | 32° |
| 2026-05-05 19:14 | 60.54776 | 5.22790 | 10406 ft | 299 kts | 32° |
| 2026-05-05 19:14 | 60.56534 | 5.25364 | 10594 ft | 321 kts | 32° |
| 2026-05-05 19:14 | 60.58391 | 5.28080 | 11061 ft | 332 kts | 32° |
| 2026-05-05 19:15 | 60.60274 | 5.30831 | 11769 ft | 336 kts | 32° |
| 2026-05-05 19:15 | 60.62180 | 5.33612 | 12546 ft | 339 kts | 32° |
| 2026-05-05 19:15 | 60.64111 | 5.36425 | 13323 ft | 342 kts | 31° |
| 2026-05-05 19:15 | 60.66075 | 5.39282 | 14087 ft | 347 kts | 31° |
| 2026-05-05 19:16 | 60.68028 | 5.42124 | 14775 ft | 351 kts | 31° |
| 2026-05-05 19:16 | 60.70035 | 5.45046 | 15479 ft | 356 kts | 31° |
| 2026-05-05 19:16 | 60.72069 | 5.48011 | 16221 ft | 360 kts | 31° |
| 2026-05-05 19:16 | 60.74121 | 5.51007 | 16927 ft | 364 kts | 31° |
| 2026-05-05 19:17 | 60.76174 | 5.54009 | 17594 ft | 369 kts | 31° |
| 2026-05-05 19:17 | 60.78284 | 5.57099 | 18275 ft | 374 kts | 31° |
| 2026-05-05 19:17 | 60.80416 | 5.60226 | 18845 ft | 379 kts | 30° |
| 2026-05-05 19:17 | 60.82565 | 5.63383 | 19301 ft | 386 kts | 30° |
| 2026-05-05 19:18 | 60.84773 | 5.66631 | 19819 ft | 392 kts | 29° |
| 2026-05-05 19:18 | 60.87001 | 5.69917 | 20348 ft | 398 kts | 29° |
| 2026-05-05 19:18 | 60.89252 | 5.73243 | 20853 ft | 404 kts | 28° |
| 2026-05-05 19:18 | 60.91555 | 5.76653 | 21366 ft | 410 kts | 28° |
| 2026-05-05 19:19 | 60.93869 | 5.80086 | 22190 ft | 408 kts | 29° |
| 2026-05-05 19:19 | 60.96186 | 5.83531 | 22757 ft | 413 kts | 28° |
| 2026-05-05 19:19 | 60.98600 | 5.86787 | 23143 ft | 415 kts | 21° |
| 2026-05-05 19:19 | 61.01140 | 5.89501 | 23618 ft | 417 kts | 17° |
| 2026-05-05 19:20 | 61.03772 | 5.92031 | 24040 ft | 419 kts | 16° |
| 2026-05-05 19:20 | 61.06440 | 5.94519 | 24496 ft | 421 kts | 15° |
| 2026-05-05 19:20 | 61.09132 | 5.97039 | 24943 ft | 426 kts | 16° |
| 2026-05-05 19:20 | 61.11832 | 5.99607 | 25327 ft | 429 kts | 16° |
| 2026-05-05 19:21 | 61.14551 | 6.02244 | 25689 ft | 433 kts | 16° |
| 2026-05-05 19:21 | 61.17258 | 6.04907 | 26039 ft | 437 kts | 17° |
| 2026-05-05 19:21 | 61.20020 | 6.07651 | 26460 ft | 441 kts | 17° |
| 2026-05-05 19:21 | 61.22807 | 6.10441 | 26979 ft | 443 kts | 18° |
| 2026-05-05 19:22 | 61.25587 | 6.13239 | 27352 ft | 446 kts | 18° |
| 2026-05-05 19:22 | 61.28400 | 6.16075 | 27681 ft | 450 kts | 18° |
| 2026-05-05 19:22 | 61.31211 | 6.18914 | 27977 ft | 453 kts | 18° |
| 2026-05-05 19:22 | 61.34066 | 6.21804 | 28288 ft | 456 kts | 18° |
| 2026-05-05 19:23 | 61.36901 | 6.24679 | 28624 ft | 459 kts | 18° |
| 2026-05-05 19:23 | 61.39787 | 6.27610 | 28963 ft | 463 kts | 18° |
| 2026-05-05 19:23 | 61.42697 | 6.30571 | 29281 ft | 466 kts | 18° |
| 2026-05-05 19:23 | 61.45634 | 6.33567 | 29596 ft | 469 kts | 18° |
| 2026-05-05 19:24 | 61.48559 | 6.36556 | 29914 ft | 473 kts | 18° |
| 2026-05-05 19:24 | 61.51519 | 6.39588 | 30196 ft | 475 kts | 18° |
| 2026-05-05 19:24 | 61.54505 | 6.42653 | 30437 ft | 477 kts | 18° |
| 2026-05-05 19:24 | 61.57469 | 6.45704 | 30691 ft | 478 kts | 18° |
| 2026-05-05 19:25 | 61.60466 | 6.48798 | 31040 ft | 477 kts | 18° |
| 2026-05-05 19:25 | 61.63415 | 6.51852 | 31459 ft | 475 kts | 19° |
| 2026-05-05 19:25 | 61.66375 | 6.54921 | 31851 ft | 474 kts | 19° |
| 2026-05-05 19:25 | 61.69336 | 6.57994 | 32171 ft | 474 kts | 19° |
| 2026-05-05 19:26 | 61.72298 | 6.61071 | 32430 ft | 474 kts | 19° |
| 2026-05-05 19:26 | 61.75265 | 6.64161 | 32784 ft | 473 kts | 19° |
| 2026-05-05 19:26 | 61.78188 | 6.67211 | 33219 ft | 472 kts | 20° |
| 2026-05-05 19:26 | 61.81133 | 6.70294 | 33628 ft | 470 kts | 21° |
| 2026-05-05 19:27 | 61.84069 | 6.73374 | 33986 ft | 469 kts | 21° |
| 2026-05-05 19:27 | 61.87002 | 6.76454 | 34202 ft | 470 kts | 21° |
| 2026-05-05 19:27 | 61.89910 | 6.79514 | 34464 ft | 471 kts | 21° |
| 2026-05-05 19:27 | 61.92843 | 6.82606 | 34710 ft | 471 kts | 21° |
| 2026-05-05 19:28 | 61.95783 | 6.85715 | 34961 ft | 470 kts | 21° |
| 2026-05-05 19:28 | 61.98710 | 6.88817 | 35182 ft | 470 kts | 21° |
| 2026-05-05 19:28 | 62.01612 | 6.91899 | 35393 ft | 470 kts | 21° |
| 2026-05-05 19:28 | 62.04541 | 6.95017 | 35598 ft | 470 kts | 21° |
| 2026-05-05 19:29 | 62.07471 | 6.98142 | 35854 ft | 470 kts | 22° |
| 2026-05-05 19:29 | 62.10397 | 7.01270 | 36092 ft | 469 kts | 22° |
| 2026-05-05 19:29 | 62.13326 | 7.04409 | 36331 ft | 469 kts | 22° |
| 2026-05-05 19:29 | 62.16215 | 7.07510 | 36538 ft | 469 kts | 22° |
| 2026-05-05 19:30 | 62.19143 | 7.10660 | 36741 ft | 469 kts | 22° |
| 2026-05-05 19:30 | 62.22067 | 7.13813 | 36919 ft | 469 kts | 22° |
| 2026-05-05 19:30 | 62.27927 | 7.20148 | 36952 ft | 473 kts | 22° |
| 2026-05-05 19:31 | 62.33749 | 7.26480 | 36984 ft | 468 kts | 22° |
| 2026-05-05 19:31 | 62.39572 | 7.32837 | 36938 ft | 467 kts | 22° |
| 2026-05-05 19:32 | 62.45324 | 7.39141 | 36929 ft | 465 kts | 22° |
| 2026-05-05 19:32 | 62.51073 | 7.45470 | 36947 ft | 464 kts | 22° |
| 2026-05-05 19:33 | 62.56835 | 7.51839 | 36940 ft | 463 kts | 22° |
| 2026-05-05 19:33 | 62.62581 | 7.58219 | 36986 ft | 464 kts | 23° |
| 2026-05-05 19:34 | 62.68319 | 7.64617 | 36952 ft | 465 kts | 23° |
| 2026-05-05 19:35 | 62.77004 | 7.74359 | 36939 ft | 467 kts | 23° |
| 2026-05-05 19:35 | 62.82773 | 7.80865 | 36942 ft | 468 kts | 23° |
| 2026-05-05 19:36 | 62.88551 | 7.87411 | 36942 ft | 469 kts | 24° |
| 2026-05-05 19:36 | 62.94372 | 7.94035 | 36950 ft | 471 kts | 24° |
| 2026-05-05 19:37 | 63.00170 | 8.00662 | 36946 ft | 471 kts | 24° |
| 2026-05-05 19:37 | 63.06006 | 8.07365 | 36934 ft | 471 kts | 24° |
| 2026-05-05 19:38 | 63.11829 | 8.14082 | 36936 ft | 470 kts | 24° |
| 2026-05-05 19:38 | 63.17627 | 8.20802 | 36937 ft | 469 kts | 24° |
| 2026-05-05 19:39 | 63.23379 | 8.27497 | 36943 ft | 469 kts | 24° |
| 2026-05-05 19:39 | 63.29119 | 8.34208 | 36921 ft | 468 kts | 24° |
| 2026-05-05 19:40 | 63.34896 | 8.40995 | 36928 ft | 466 kts | 24° |
| 2026-05-05 19:40 | 63.40609 | 8.47736 | 36917 ft | 465 kts | 24° |
| 2026-05-05 19:41 | 63.51659 | 8.60862 | 36922 ft | 464 kts | 25° |
| 2026-05-05 19:42 | 63.57365 | 8.67685 | 36915 ft | 464 kts | 25° |
| 2026-05-05 19:42 | 63.63026 | 8.74486 | 36907 ft | 463 kts | 25° |
| 2026-05-05 19:43 | 63.68726 | 8.81364 | 36907 ft | 464 kts | 25° |
| 2026-05-05 19:43 | 63.74387 | 8.88227 | 36900 ft | 464 kts | 25° |
| 2026-05-05 19:44 | 63.80074 | 8.95153 | 36910 ft | 465 kts | 25° |
| 2026-05-05 19:44 | 63.85766 | 9.02118 | 36896 ft | 465 kts | 26° |
| 2026-05-05 19:45 | 63.91471 | 9.09132 | 36897 ft | 465 kts | 26° |
| 2026-05-05 19:45 | 63.97164 | 9.16164 | 36885 ft | 465 kts | 26° |
| 2026-05-05 19:46 | 64.02817 | 9.23177 | 36890 ft | 465 kts | 26° |
| 2026-05-05 19:46 | 64.08513 | 9.30278 | 36889 ft | 466 kts | 26° |
| 2026-05-05 19:47 | 64.14204 | 9.37407 | 36874 ft | 465 kts | 26° |
| 2026-05-05 19:47 | 64.19883 | 9.44553 | 36865 ft | 465 kts | 26° |
| 2026-05-05 19:48 | 64.25526 | 9.51688 | 36870 ft | 464 kts | 26° |
| 2026-05-05 19:48 | 64.31183 | 9.58875 | 36854 ft | 463 kts | 26° |
| 2026-05-05 19:49 | 64.36802 | 9.66046 | 36868 ft | 463 kts | 26° |
| 2026-05-05 19:49 | 64.42431 | 9.73264 | 36854 ft | 462 kts | 26° |
| 2026-05-05 19:50 | 64.48057 | 9.80513 | 36852 ft | 462 kts | 26° |
| 2026-05-05 19:50 | 64.53688 | 9.87801 | 36855 ft | 462 kts | 26° |
| 2026-05-05 19:51 | 64.59279 | 9.95075 | 36856 ft | 463 kts | 27° |
| 2026-05-05 19:51 | 64.64884 | 10.02399 | 36867 ft | 463 kts | 27° |
| 2026-05-05 19:52 | 64.70514 | 10.09792 | 36849 ft | 464 kts | 27° |
| 2026-05-05 19:52 | 64.76127 | 10.17199 | 36831 ft | 464 kts | 27° |
| 2026-05-05 19:53 | 64.81759 | 10.24667 | 36832 ft | 464 kts | 27° |
| 2026-05-05 19:53 | 64.87361 | 10.32131 | 36833 ft | 464 kts | 27° |
| 2026-05-05 19:54 | 64.92967 | 10.39637 | 36825 ft | 464 kts | 27° |
| 2026-05-05 19:54 | 64.98600 | 10.47215 | 36831 ft | 465 kts | 27° |
| 2026-05-05 19:55 | 65.04192 | 10.54776 | 36813 ft | 464 kts | 27° |
| 2026-05-05 19:55 | 65.09814 | 10.62414 | 36812 ft | 464 kts | 27° |
| 2026-05-05 19:56 | 65.15387 | 10.70022 | 36800 ft | 464 kts | 27° |
| 2026-05-05 19:56 | 65.20975 | 10.77690 | 36801 ft | 463 kts | 27° |
| 2026-05-05 19:57 | 65.26572 | 10.85405 | 36790 ft | 463 kts | 27° |
| 2026-05-05 19:57 | 65.32129 | 10.93104 | 36793 ft | 463 kts | 27° |
| 2026-05-05 19:58 | 65.37708 | 11.00872 | 36774 ft | 463 kts | 27° |
| 2026-05-05 19:58 | 65.43251 | 11.08629 | 36778 ft | 463 kts | 27° |
| 2026-05-05 19:59 | 65.48796 | 11.16427 | 36764 ft | 463 kts | 28° |
| 2026-05-05 19:59 | 65.54363 | 11.24295 | 36774 ft | 463 kts | 28° |
| 2026-05-05 20:00 | 65.59930 | 11.32202 | 36750 ft | 463 kts | 28° |
| 2026-05-05 20:00 | 65.65477 | 11.40120 | 36752 ft | 463 kts | 28° |
| 2026-05-05 20:01 | 65.71004 | 11.48051 | 36739 ft | 463 kts | 28° |
| 2026-05-05 20:01 | 65.76562 | 11.56064 | 36737 ft | 463 kts | 28° |
| 2026-05-05 20:02 | 65.82113 | 11.64109 | 36741 ft | 463 kts | 29° |
| 2026-05-05 20:02 | 65.87616 | 11.72126 | 36718 ft | 463 kts | 28° |
| 2026-05-05 20:03 | 65.93119 | 11.80182 | 36704 ft | 462 kts | 28° |
| 2026-05-05 20:03 | 65.98621 | 11.88279 | 36703 ft | 462 kts | 29° |
| 2026-05-05 20:04 | 66.04136 | 11.96436 | 36703 ft | 461 kts | 29° |
| 2026-05-05 20:04 | 66.09592 | 12.04547 | 36692 ft | 461 kts | 28° |
| 2026-05-05 20:05 | 66.15080 | 12.12746 | 36683 ft | 460 kts | 29° |
| 2026-05-05 20:05 | 66.20575 | 12.20998 | 36696 ft | 460 kts | 29° |
| 2026-05-05 20:06 | 66.26014 | 12.29208 | 36709 ft | 459 kts | 30° |
| 2026-05-05 20:06 | 66.31472 | 12.37490 | 36687 ft | 459 kts | 30° |
| 2026-05-05 20:07 | 66.36918 | 12.45796 | 36689 ft | 459 kts | 30° |
| 2026-05-05 20:07 | 66.42349 | 12.54121 | 36698 ft | 459 kts | 30° |
| 2026-05-05 20:08 | 66.47770 | 12.62474 | 36694 ft | 459 kts | 30° |
| 2026-05-05 20:08 | 66.53188 | 12.70866 | 36697 ft | 459 kts | 30° |
| 2026-05-05 20:09 | 66.58612 | 12.79311 | 36693 ft | 458 kts | 30° |
| 2026-05-05 20:09 | 66.64027 | 12.87786 | 36683 ft | 458 kts | 30° |
| 2026-05-05 20:10 | 66.69450 | 12.96318 | 36699 ft | 458 kts | 31° |
| 2026-05-05 20:10 | 66.74830 | 13.04827 | 36685 ft | 459 kts | 31° |
| 2026-05-05 20:11 | 66.80234 | 13.13418 | 36689 ft | 459 kts | 31° |
| 2026-05-05 20:11 | 66.85661 | 13.22092 | 36680 ft | 459 kts | 31° |
| 2026-05-05 20:12 | 66.91031 | 13.30721 | 36684 ft | 459 kts | 31° |
| 2026-05-05 20:12 | 66.95520 | 13.37968 | 36684 ft | 458 kts | 31° |
| 2026-05-05 20:13 | 67.00921 | 13.46731 | 36686 ft | 459 kts | 31° |
| 2026-05-05 20:13 | 67.06294 | 13.55495 | 36681 ft | 459 kts | 31° |
| 2026-05-05 20:14 | 67.11691 | 13.64345 | 36683 ft | 459 kts | 31° |
| 2026-05-05 20:14 | 67.17042 | 13.73167 | 36678 ft | 459 kts | 31° |
| 2026-05-05 20:15 | 67.22419 | 13.82079 | 36684 ft | 459 kts | 31° |
| 2026-05-05 20:15 | 67.27759 | 13.90978 | 36687 ft | 459 kts | 31° |
| 2026-05-05 20:16 | 67.33138 | 13.99990 | 36688 ft | 459 kts | 32° |
| 2026-05-05 20:16 | 67.38481 | 14.08992 | 36693 ft | 459 kts | 32° |
| 2026-05-05 20:17 | 67.43825 | 14.18043 | 36689 ft | 459 kts | 32° |
| 2026-05-05 20:17 | 67.49187 | 14.27174 | 36688 ft | 459 kts | 32° |
| 2026-05-05 20:18 | 67.54533 | 14.36328 | 36683 ft | 460 kts | 32° |
| 2026-05-05 20:18 | 67.59863 | 14.45505 | 36689 ft | 460 kts | 32° |
| 2026-05-05 20:19 | 67.65193 | 14.54732 | 36685 ft | 460 kts | 32° |
| 2026-05-05 20:19 | 67.70535 | 14.64033 | 36690 ft | 460 kts | 32° |
| 2026-05-05 20:20 | 67.75842 | 14.73321 | 36687 ft | 460 kts | 32° |
| 2026-05-05 20:20 | 67.78537 | 14.78058 | 36426 ft | 463 kts | 32° |
| 2026-05-05 20:20 | 67.81217 | 14.82782 | 36185 ft | 460 kts | 32° |
| 2026-05-05 20:20 | 67.83866 | 14.87466 | 35837 ft | 454 kts | 32° |
| 2026-05-05 20:21 | 67.86448 | 14.92044 | 35470 ft | 449 kts | 33° |
| 2026-05-05 20:21 | 67.89035 | 14.96642 | 35150 ft | 444 kts | 33° |
| 2026-05-05 20:21 | 67.91584 | 15.01187 | 34919 ft | 436 kts | 33° |
| 2026-05-05 20:21 | 67.94096 | 15.05675 | 34579 ft | 432 kts | 33° |
| 2026-05-05 20:22 | 67.96559 | 15.10088 | 34221 ft | 429 kts | 33° |
| 2026-05-05 20:22 | 67.99031 | 15.14528 | 33829 ft | 426 kts | 33° |
| 2026-05-05 20:22 | 68.01459 | 15.18899 | 33370 ft | 424 kts | 33° |
| 2026-05-05 20:22 | 68.03906 | 15.23316 | 32941 ft | 421 kts | 33° |
| 2026-05-05 20:23 | 68.06330 | 15.27705 | 32529 ft | 418 kts | 33° |
| 2026-05-05 20:23 | 68.08705 | 15.32016 | 32133 ft | 414 kts | 33° |
| 2026-05-05 20:23 | 68.11081 | 15.36338 | 31750 ft | 410 kts | 33° |
| 2026-05-05 20:23 | 68.13442 | 15.40645 | 31374 ft | 407 kts | 33° |
| 2026-05-05 20:24 | 68.15755 | 15.44875 | 31007 ft | 403 kts | 34° |
| 2026-05-05 20:24 | 68.18067 | 15.49113 | 30615 ft | 400 kts | 34° |
| 2026-05-05 20:24 | 68.20367 | 15.53341 | 30242 ft | 397 kts | 34° |
| 2026-05-05 20:24 | 68.22616 | 15.57484 | 29878 ft | 394 kts | 34° |
| 2026-05-05 20:25 | 68.24866 | 15.61639 | 29435 ft | 387 kts | 34° |
| 2026-05-05 20:25 | 68.27069 | 15.65718 | 29038 ft | 378 kts | 34° |
| 2026-05-05 20:25 | 68.29206 | 15.69683 | 28662 ft | 374 kts | 34° |
| 2026-05-05 20:25 | 68.31345 | 15.73662 | 28295 ft | 369 kts | 34° |
| 2026-05-05 20:26 | 68.33453 | 15.77591 | 27920 ft | 365 kts | 34° |
| 2026-05-05 20:26 | 68.35535 | 15.81481 | 27565 ft | 361 kts | 34° |
| 2026-05-05 20:26 | 68.37594 | 15.85338 | 27184 ft | 358 kts | 34° |
| 2026-05-05 20:26 | 68.39610 | 15.89122 | 26823 ft | 355 kts | 34° |
| 2026-05-05 20:27 | 68.41640 | 15.92939 | 26466 ft | 351 kts | 34° |
| 2026-05-05 20:27 | 68.43645 | 15.96718 | 26109 ft | 349 kts | 34° |
| 2026-05-05 20:27 | 68.45613 | 16.00437 | 25753 ft | 346 kts | 34° |
| 2026-05-05 20:27 | 68.47590 | 16.04180 | 25393 ft | 344 kts | 34° |
| 2026-05-05 20:28 | 68.49560 | 16.07918 | 25045 ft | 341 kts | 34° |
| 2026-05-05 20:28 | 68.51489 | 16.11585 | 24706 ft | 339 kts | 34° |
| 2026-05-05 20:28 | 68.53419 | 16.15263 | 24361 ft | 337 kts | 34° |
| 2026-05-05 20:28 | 68.55343 | 16.18936 | 24014 ft | 335 kts | 34° |
| 2026-05-05 20:29 | 68.57227 | 16.22542 | 23682 ft | 333 kts | 34° |
| 2026-05-05 20:29 | 68.59126 | 16.26183 | 23354 ft | 331 kts | 34° |
| 2026-05-05 20:29 | 68.61014 | 16.29812 | 22950 ft | 330 kts | 34° |
| 2026-05-05 20:29 | 68.62886 | 16.33417 | 22583 ft | 328 kts | 34° |
| 2026-05-05 20:30 | 68.64727 | 16.36969 | 22260 ft | 324 kts | 34° |
| 2026-05-05 20:30 | 68.66562 | 16.40518 | 21932 ft | 321 kts | 34° |
| 2026-05-05 20:30 | 68.68388 | 16.44055 | 21589 ft | 319 kts | 34° |
| 2026-05-05 20:30 | 68.70188 | 16.47552 | 21266 ft | 316 kts | 34° |
| 2026-05-05 20:31 | 68.71985 | 16.51047 | 20942 ft | 313 kts | 34° |
| 2026-05-05 20:31 | 68.73759 | 16.54504 | 20618 ft | 312 kts | 34° |
| 2026-05-05 20:31 | 68.75511 | 16.57925 | 20301 ft | 313 kts | 34° |
| 2026-05-05 20:31 | 68.77292 | 16.61412 | 19983 ft | 316 kts | 34° |
| 2026-05-05 20:32 | 68.79117 | 16.64987 | 19671 ft | 324 kts | 34° |
| 2026-05-05 20:32 | 68.80975 | 16.68638 | 19323 ft | 327 kts | 34° |
| 2026-05-05 20:32 | 68.82826 | 16.72284 | 18975 ft | 325 kts | 34° |
| 2026-05-05 20:32 | 68.84565 | 16.76155 | 18460 ft | 329 kts | 46° |
| 2026-05-05 20:33 | 68.86055 | 16.80988 | 18077 ft | 329 kts | 50° |
| 2026-05-05 20:33 | 68.87514 | 16.85900 | 17674 ft | 327 kts | 50° |
| 2026-05-05 20:33 | 68.88955 | 16.90768 | 17310 ft | 325 kts | 50° |
| 2026-05-05 20:33 | 68.90372 | 16.95540 | 17002 ft | 321 kts | 50° |
| 2026-05-05 20:34 | 68.91792 | 17.00309 | 16673 ft | 318 kts | 50° |
| 2026-05-05 20:34 | 68.93201 | 17.05032 | 16338 ft | 315 kts | 50° |
| 2026-05-05 20:34 | 68.94579 | 17.09649 | 16031 ft | 312 kts | 49° |
| 2026-05-05 20:34 | 68.95959 | 17.14276 | 15718 ft | 309 kts | 50° |
| 2026-05-05 20:35 | 68.97331 | 17.18877 | 15410 ft | 306 kts | 50° |
| 2026-05-05 20:35 | 68.98674 | 17.23392 | 15102 ft | 304 kts | 50° |
| 2026-05-05 20:35 | 69.00020 | 17.27920 | 14798 ft | 302 kts | 50° |
| 2026-05-05 20:35 | 69.01359 | 17.32437 | 14481 ft | 300 kts | 50° |
| 2026-05-05 20:36 | 69.02686 | 17.36922 | 14174 ft | 298 kts | 50° |
| 2026-05-05 20:36 | 69.04008 | 17.41395 | 13870 ft | 297 kts | 50° |
| 2026-05-05 20:36 | 69.05304 | 17.45794 | 13559 ft | 296 kts | 50° |
| 2026-05-05 20:36 | 69.06609 | 17.50229 | 13237 ft | 294 kts | 50° |
| 2026-05-05 20:37 | 69.07905 | 17.54644 | 12925 ft | 292 kts | 50° |
| 2026-05-05 20:37 | 69.09188 | 17.59023 | 12622 ft | 289 kts | 50° |
| 2026-05-05 20:37 | 69.10459 | 17.63369 | 12330 ft | 286 kts | 50° |
| 2026-05-05 20:37 | 69.11703 | 17.67631 | 12020 ft | 285 kts | 50° |
| 2026-05-05 20:38 | 69.12955 | 17.71930 | 11714 ft | 283 kts | 50° |
| 2026-05-05 20:38 | 69.14201 | 17.76216 | 11414 ft | 281 kts | 50° |
| 2026-05-05 20:38 | 69.15434 | 17.80469 | 11118 ft | 279 kts | 50° |
| 2026-05-05 20:38 | 69.16642 | 17.84641 | 10823 ft | 278 kts | 50° |
| 2026-05-05 20:39 | 69.17858 | 17.88849 | 10530 ft | 276 kts | 50° |
| 2026-05-05 20:39 | 69.19070 | 17.93053 | 10237 ft | 274 kts | 50° |
| 2026-05-05 20:39 | 69.20256 | 17.97172 | 9951 ft | 273 kts | 50° |
| 2026-05-05 20:39 | 69.21441 | 18.01300 | 9786 ft | 267 kts | 50° |
| 2026-05-05 20:40 | 69.22595 | 18.05326 | 9636 ft | 260 kts | 50° |
| 2026-05-05 20:40 | 69.23736 | 18.09312 | 9336 ft | 259 kts | 50° |
| 2026-05-05 20:40 | 69.24866 | 18.13268 | 9054 ft | 258 kts | 50° |
| 2026-05-05 20:40 | 69.25984 | 18.17187 | 8817 ft | 255 kts | 50° |
| 2026-05-05 20:41 | 69.27075 | 18.21021 | 8541 ft | 253 kts | 50° |
| 2026-05-05 20:41 | 69.28179 | 18.24906 | 8265 ft | 252 kts | 50° |
| 2026-05-05 20:41 | 69.29273 | 18.28765 | 8007 ft | 251 kts | 50° |
| 2026-05-05 20:41 | 69.30360 | 18.32605 | 7740 ft | 250 kts | 51° |
| 2026-05-05 20:42 | 69.31431 | 18.36393 | 7519 ft | 249 kts | 51° |
| 2026-05-05 20:42 | 69.32526 | 18.40275 | 7263 ft | 255 kts | 51° |
| 2026-05-05 20:42 | 69.33643 | 18.44243 | 7053 ft | 258 kts | 51° |
| 2026-05-05 20:42 | 69.34755 | 18.48198 | 6993 ft | 254 kts | 51° |
| 2026-05-05 20:43 | 69.35829 | 18.52031 | 6982 ft | 242 kts | 51° |
| 2026-05-05 20:43 | 69.36853 | 18.55684 | 6939 ft | 231 kts | 51° |
| 2026-05-05 20:43 | 69.37831 | 18.59179 | 6824 ft | 223 kts | 51° |
| 2026-05-05 20:43 | 69.38790 | 18.62610 | 6732 ft | 220 kts | 51° |
| 2026-05-05 20:44 | 69.39737 | 18.66011 | 6516 ft | 223 kts | 52° |
| 2026-05-05 20:44 | 69.40697 | 18.69461 | 6296 ft | 223 kts | 52° |
| 2026-05-05 20:44 | 69.41659 | 18.72918 | 6064 ft | 222 kts | 51° |
| 2026-05-05 20:44 | 69.42867 | 18.75535 | 5785 ft | 220 kts | 15° |
| 2026-05-05 20:45 | 69.45796 | 18.76851 | 5413 ft | 209 kts | 13° |
| 2026-05-05 20:45 | 69.47196 | 18.77754 | 5170 ft | 203 kts | 14° |
| 2026-05-05 20:45 | 69.48552 | 18.78662 | 5020 ft | 197 kts | 14° |
| 2026-05-05 20:46 | 69.49885 | 18.79557 | 4870 ft | 199 kts | 14° |
| 2026-05-05 20:46 | 69.51237 | 18.80463 | 4527 ft | 203 kts | 14° |
| 2026-05-05 20:46 | 69.52620 | 18.81389 | 4161 ft | 204 kts | 14° |
| 2026-05-05 20:46 | 69.53996 | 18.82310 | 3772 ft | 203 kts | 13° |
| 2026-05-05 20:47 | 69.55366 | 18.83225 | 3378 ft | 198 kts | 14° |
| 2026-05-05 20:47 | 69.56684 | 18.84107 | 3022 ft | 189 kts | 14° |
| 2026-05-05 20:47 | 69.57937 | 18.84945 | 2666 ft | 180 kts | 13° |
| 2026-05-05 20:47 | 69.59129 | 18.85743 | 2333 ft | 172 kts | 13° |
| 2026-05-05 20:48 | 69.60225 | 18.86475 | 2016 ft | 158 kts | 13° |
| 2026-05-05 20:48 | 69.61259 | 18.87166 | 1707 ft | 147 kts | 13° |
| 2026-05-05 20:48 | 69.62248 | 18.87827 | 1426 ft | 146 kts | 13° |
| 2026-05-05 20:48 | 69.63231 | 18.88485 | 1139 ft | 144 kts | 13° |
| 2026-05-05 20:49 | 69.64220 | 18.89158 | 854 ft | 148 kts | 14° |
| 2026-05-05 20:49 | 69.65209 | 18.89850 | 636 ft | 147 kts | 13° |
| 2026-05-05 20:49 | 69.66209 | 18.90477 | 380 ft | 144 kts | 13° |
| 2026-05-05 20:49 | 69.67172 | 18.91104 | 91 ft | 139 kts | 13° |
| 2026-05-05 20:50 | 69.68037 | 18.91679 | 35 ft | 106 kts | 12° |
| 2026-05-05 20:50 | 69.68388 | 18.91925 | 29 ft | 66 kts | 14° |
| 2026-05-05 20:50 | 69.68629 | 18.92075 | 23 ft | 13 kts | 14° |
| 2026-05-05 20:50 | 69.68709 | 18.92133 | 21 ft | 9 kts | 14° |
| 2026-05-05 20:51 | 69.68761 | 18.92046 | 19 ft | 10 kts | 293° |
| 2026-05-05 20:51 | 69.68772 | 18.91919 | 19 ft | 3 kts | 282° |
| 2026-05-05 20:51 | 69.68777 | 18.91846 | 20 ft | 6 kts | 282° |
| 2026-05-05 20:51 | 69.68767 | 18.91729 | 20 ft | 7 kts | 223° |
| 2026-05-05 20:52 | 69.68719 | 18.91680 | 19 ft | 9 kts | 193° |
| 2026-05-05 20:52 | 69.68642 | 18.91630 | 20 ft | 13 kts | 193° |
| 2026-05-05 20:52 | 69.68552 | 18.91567 | 24 ft | 13 kts | 194° |
| 2026-05-05 20:52 | 69.68466 | 18.91506 | 25 ft | 13 kts | 189° |
| 2026-05-05 20:53 | 69.68379 | 18.91501 | 28 ft | 12 kts | 180° |
| 2026-05-05 20:53 | 69.68295 | 18.91475 | 27 ft | 12 kts | 193° |
| 2026-05-05 20:53 | 69.68215 | 18.91422 | 30 ft | 12 kts | 193° |
| 2026-05-05 20:53 | 69.68137 | 18.91370 | 34 ft | 11 kts | 193° |
| 2026-05-05 20:54 | 69.68060 | 18.91319 | 34 ft | 11 kts | 193° |
| 2026-05-05 20:54 | 69.67986 | 18.91272 | 34 ft | 11 kts | 193° |
| 2026-05-05 20:54 | 69.67914 | 18.91226 | 34 ft | 10 kts | 193° |
| 2026-05-05 20:54 | 69.67883 | 18.91204 | 34 ft | 2 kts | 193° |
| 2026-05-05 20:55 | 69.67865 | 18.91170 | 34 ft | 4 kts | 238° |
| 2026-05-05 20:55 | 69.67867 | 18.91089 | 34 ft | 6 kts | 281° |
| 2026-05-05 20:55 | 69.67876 | 18.90962 | 34 ft | 2 kts | 282° |
| 2026-05-05 20:55 | 69.67879 | 18.90926 | 34 ft | 2 kts | 284° |
| 2026-05-05 20:56 | 69.67882 | 18.90888 | 33 ft | 1 kts | 283° |
| 2026-05-05 20:56 | 69.67884 | 18.90866 | 31 ft | 0 kts | 282° |